Startpagina
METAR-TAF:

METAR-TAF

Vliegvelden :

Larnaca, Cyprus

Luchthaven Larnaca

breedte: 34-53N, lengte: 033-38E, hoogte: 2 m

Actueel weer

Dit bericht is 37 minuten geleden gemaakt, om 03:30 UTC
Wind 5 kt uit het noordwesten
Temperatuur 12°C
Vochtigheid 50%
Druk 1014 hPa
Zicht 10 km of meer
geen wolken onder 1500 m en geen cumulonimbus

METAR: LCLK 240330Z 32005KT CAVOK 12/02 Q1014 NOSIG

Tijdstip: 06:07 (04:07 UTC)

Verwachting

Dit bericht is 4 uur en het 37 minuten geleden gemaakt, om 23:30 UTC
Verwachting geldig van 24 om 00 UTC tot 24 om 24 UTC
Wind 6 kt uit het noordwesten
Zicht 10 km of meer
Weinig wolken op 2500 ft
Wijzigt naar
van 24 om 11 UTC tot 24 om 14 UTC
Wind 14 kt uit het zuidwesten
Wijzigt naar
van 24 om 18 UTC tot 24 om 20 UTC
Wind 6 kt uit het noordwesten

TAF: LCLK 232330Z 2400/2424 32006KT 9999 FEW025 BECMG 2411/2414 22014KT BECMG 2418/2420 32006KT

Waarnemingen en weersverwachtingen van meer dan 4000 vliegvelden (METAR en TAF).

De beschikbare stations zijn de gele en rode punten op de kaart.

Ga met uw muis naar het station om de naam te zien.

Klik dan om waarnemingen en weersverwachtingen te zien.

kaart wijzigen: klik op de groene knoppen met een zwart kruis om in te zoomen, op de groene knop met een streepje om uit te zoomen of op de groene pijlen voor aangrenzende kaarten.


METAR-TAF: